This is the latest recevied weather packets stored in our database for station/object N3WMC. If no packets are shown the sender has not sent any weather packets the latest 10 day(s).
| Time | Temp. | Humidity | Pressure | Rain* | Wind** | Luminosity | Snow |
|---|---|---|---|---|---|---|---|
| 1787793309 | 18.89° C | 88% | 1016.4 hPa | 0 mm | - | 0 W/m² | - |
| 1787793005 | 18.89° C | 88% | 1015.9 hPa | 0 mm | - | 0 W/m² | - |
| 1787792699 | 18.89° C | 88% | 1016.1 hPa | 0 mm | - | 0 W/m² | - |
| 1787792397 | 19.44° C | 87% | 1016.1 hPa | 0 mm | - | 0 W/m² | - |
| 1787792096 | 19.44° C | 87% | 1016 hPa | 0 mm | - | 0 W/m² | - |
| 1787791794 | 19.44° C | 86% | 1016 hPa | 0 mm | - | 0 W/m² | - |
| 1787791489 | 19.44° C | 85% | 1016.3 hPa | 0 mm | - | 0 W/m² | - |
| 1787791184 | 20° C | 84% | 1016.3 hPa | 0 mm | - | 0 W/m² | - |
| 1787790881 | 20° C | 84% | 1016.3 hPa | 0 mm | - | 0 W/m² | - |
| 1787790581 | 20° C | 83% | 1016 hPa | 0 mm | - | 0 W/m² | - |
| 1787790276 | 20° C | 83% | 1015.9 hPa | 0 mm | - | 0 W/m² | - |
| 1787789972 | 20.56° C | 82% | 1015.9 hPa | 0 mm | - | 0 W/m² | - |
| 1787789667 | 20.56° C | 80% | 1015.7 hPa | 0 mm | - | 0 W/m² | - |
| 1787789367 | 21.11° C | 78% | 1016 hPa | 0 mm | - | 1 W/m² | - |
| 1787789061 | 21.67° C | 77% | 1015.8 hPa | 0 mm | - | 2 W/m² | - |
| 1787788759 | 21.67° C | 76% | 1015.9 hPa | 0 mm | - | 3 W/m² | - |
| 1787788453 | 22.22° C | 74% | 1016 hPa | 0 mm | - | 5 W/m² | - |
| 1787788148 | 22.78° C | 73% | 1015.8 hPa | 0 mm | - | 7 W/m² | - |
| 1787787843 | 23.33° C | 70% | 1015.6 hPa | 0 mm | - | 10 W/m² | - |
| 1787787542 | 23.89° C | 68% | 1015.8 hPa | 0 mm | - | 14 W/m² | - |
| 1787787237 | 24.44° C | 66% | 1015.7 hPa | 0 mm | - | 17 W/m² | - |
| 1787786936 | 25.56° C | 62% | 1015.7 hPa | 0 mm | - | 20 W/m² | - |
| 1787786631 | 26.11° C | 59% | 1015.5 hPa | 0 mm | - | 23 W/m² | - |
| 1787786326 | 26.11° C | 58% | 1015.6 hPa | 0 mm | - | 26 W/m² | - |
| 1787786023 | 26.11° C | 59% | 1015.6 hPa | 0 mm | - | 29 W/m² | - |
* Rain latest hour (hover to see other rain measurements)
** Current wind speed in m/s (hover to see current wind gust speed)